Time;durP1;ratioP1;P1;durP2;ratioP2;P2;SDS_P1;SDS_P2;PMS_P1;PMS_P2;Temp;Humidity;BMP_temperature;BMP_pressure;BME280_temperature;BME280_humidity;BME280_pressure;Samples;Min_cycle;Max_cycle;Signal;HPM_P1;HPM_P2
2023/09/25 00:00:37;;;;;;;3.30;1.60;;;;;;;;;;5073567;28;20051;-91
2023/09/25 00:03:03;;;;;;;5.18;1.50;;;;;;;;;;5060640;28;20063;-90
2023/09/25 00:05:28;;;;;;;3.67;1.40;;;;;;;;;;5055208;28;20025;-90
2023/09/25 00:07:54;;;;;;;4.28;2.00;;;;;;;;;;5057884;28;20123;-91
2023/09/25 00:10:23;;;;;;;3.53;1.42;;;;;;;;;;5070611;28;20020;-90
2023/09/25 00:12:48;;;;;;;5.05;1.70;;;;;;;;;;5063162;28;20029;-90
2023/09/25 00:15:14;;;;;;;4.65;1.48;;;;;;;;;;5068959;28;20023;-90
2023/09/25 00:17:42;;;;;;;4.00;1.75;;;;;;;;;;5072963;28;20019;-91
2023/09/25 00:20:10;;;;;;;4.10;1.55;;;;;;;;;;5058402;28;20080;-91
2023/09/25 00:22:36;;;;;;;3.65;1.50;;;;;;;;;;5053162;28;20029;-91
2023/09/25 00:25:01;;;;;;;3.85;1.67;;;;;;;;;;5061969;28;20016;-90
2023/09/25 00:27:27;;;;;;;4.57;1.65;;;;;;;;;;5072186;28;20043;-91
2023/09/25 00:29:52;;;;;;;3.63;1.58;;;;;;;;;;5058909;28;20098;-91
2023/09/25 00:32:17;;;;;;;3.35;1.50;;;;;;;;;;5064818;28;20498;-90
2023/09/25 00:34:43;;;;;;;6.53;1.65;;;;;;;;;;5072661;28;20048;-91
2023/09/25 00:37:08;;;;;;;4.78;1.88;;;;;;;;;;5072387;28;20107;-90
2023/09/25 00:39:33;;;;;;;4.70;1.60;;;;;;;;;;5062768;28;20070;-90
2023/09/25 00:42:01;;;;;;;4.72;1.58;;;;;;;;;;5060746;28;20128;-90
2023/09/25 00:44:27;;;;;;;3.03;1.45;;;;;;;;;;5058273;28;20028;-90
2023/09/25 00:46:52;;;;;;;5.45;1.70;;;;;;;;;;5072478;28;20020;-90
2023/09/25 00:49:18;;;;;;;7.03;1.90;;;;;;;;;;5067416;28;20020;-90
2023/09/25 00:51:44;;;;;;;3.55;1.60;;;;;;;;;;5072418;28;20115;-90
2023/09/25 00:54:21;;;;;;;5.35;1.65;;;;;;;;;;5073755;28;20016;-90
2023/09/25 00:56:48;;;;;;;3.80;1.42;;;;;;;;;;5057897;28;20107;-89
2023/09/25 00:59:14;;;;;;;3.05;1.60;;;;;;;;;;5057661;28;20029;-90
2023/09/25 01:01:40;;;;;;;3.33;1.58;;;;;;;;;;5069109;28;20020;-90
2023/09/25 01:04:06;;;;;;;3.70;1.38;;;;;;;;;;5066600;28;20107;-90
2023/09/25 01:06:34;;;;;;;4.43;1.70;;;;;;;;;;5081212;28;20032;-91
2023/09/25 01:08:59;;;;;;;2.88;1.30;;;;;;;;;;5083250;28;20457;-90
2023/09/25 01:11:24;;;;;;;2.85;1.50;;;;;;;;;;5073829;28;20024;-90
2023/09/25 01:13:50;;;;;;;2.88;1.42;;;;;;;;;;5065535;28;20015;-90
2023/09/25 01:16:16;;;;;;;3.03;1.48;;;;;;;;;;5068467;28;20590;-90
2023/09/25 01:18:44;;;;;;;4.15;2.10;;;;;;;;;;5067972;28;20169;-90
2023/09/25 01:21:12;;;;;;;3.47;1.45;;;;;;;;;;5062546;28;20022;-90
2023/09/25 01:23:37;;;;;;;6.00;1.80;;;;;;;;;;5065674;28;20021;-91
2023/09/25 01:26:04;;;;;;;3.28;1.42;;;;;;;;;;5072495;28;20146;-90
2023/09/25 01:28:29;;;;;;;2.75;1.55;;;;;;;;;;5075837;28;20021;-90
2023/09/25 01:30:55;;;;;;;3.78;1.67;;;;;;;;;;5075424;28;20436;-91
2023/09/25 01:33:20;;;;;;;4.45;1.65;;;;;;;;;;5058174;28;20433;-91
2023/09/25 01:35:46;;;;;;;3.90;1.35;;;;;;;;;;5068145;28;20020;-90
2023/09/25 01:38:12;;;;;;;3.30;1.35;;;;;;;;;;5061220;28;20676;-89
2023/09/25 01:40:37;;;;;;;4.68;1.70;;;;;;;;;;5064204;28;20021;-90
2023/09/25 01:43:02;;;;;;;4.07;1.40;;;;;;;;;;5073912;28;20131;-90
2023/09/25 01:45:28;;;;;;;3.22;1.40;;;;;;;;;;5075515;28;20501;-90
2023/09/25 01:47:53;;;;;;;4.88;1.52;;;;;;;;;;5074560;28;20029;-90
2023/09/25 01:50:23;;;;;;;4.32;1.75;;;;;;;;;;5075967;28;20177;-90
2023/09/25 01:53:03;;;;;;;3.35;1.55;;;;;;;;;;5062293;28;20451;-91
2023/09/25 01:55:35;;;;;;;5.40;1.63;;;;;;;;;;5063756;28;20025;-90
2023/09/25 01:58:00;;;;;;;;;;;;;;;;;;5072284;28;20025;-90
2023/09/25 02:00:26;;;;;;;4.70;1.90;;;;;;;;;;5095191;28;19915;-90
2023/09/25 02:02:54;;;;;;;3.05;1.42;;;;;;;;;;5070735;28;20021;-91
2023/09/25 02:05:19;;;;;;;3.65;1.48;;;;;;;;;;5066851;28;20070;-90
2023/09/25 02:07:45;;;;;;;6.30;1.60;;;;;;;;;;5071068;28;20382;-90
2023/09/25 02:10:14;;;;;;;4.82;1.33;;;;;;;;;;5065369;28;20122;-90
2023/09/25 02:12:40;;;;;;;3.08;1.35;;;;;;;;;;5075696;28;20341;-90
2023/09/25 02:15:07;;;;;;;3.90;1.30;;;;;;;;;;5071316;28;20028;-90
2023/09/25 02:17:33;;;;;;;2.38;1.33;;;;;;;;;;5079576;28;20024;-93
2023/09/25 02:20:16;;;;;;;2.97;1.60;;;;;;;;;;5075109;28;20111;-93
2023/09/25 02:22:45;;;;;;;3.30;1.50;;;;;;;;;;5078111;28;20032;-93
2023/09/25 02:25:11;;;;;;;4.40;1.30;;;;;;;;;;5074921;28;20044;-93
2023/09/25 02:27:37;;;;;;;3.40;1.30;;;;;;;;;;5073792;28;20063;-93
2023/09/25 02:30:03;;;;;;;5.32;1.20;;;;;;;;;;5074833;28;20016;-93
2023/09/25 02:32:28;;;;;;;2.75;1.30;;;;;;;;;;5073949;28;20400;-93
2023/09/25 02:34:53;;;;;;;2.90;1.30;;;;;;;;;;5054564;28;20108;-93
2023/09/25 02:37:19;;;;;;;5.72;1.60;;;;;;;;;;5057012;28;20472;-93
2023/09/25 02:39:47;;;;;;;5.38;1.70;;;;;;;;;;5060397;28;20016;-92
2023/09/25 02:42:12;;;;;;;5.95;1.30;;;;;;;;;;5074106;28;20028;-92
2023/09/25 02:44:37;;;;;;;3.20;1.40;;;;;;;;;;5074744;28;20498;-92
2023/09/25 02:47:03;;;;;;;4.20;1.27;;;;;;;;;;5073347;28;20070;-92
2023/09/25 02:49:28;;;;;;;5.38;1.50;;;;;;;;;;5070330;28;20033;-93
2023/09/25 02:51:54;;;;;;;7.15;1.42;;;;;;;;;;5063057;28;20031;-92
2023/09/25 02:54:19;;;;;;;3.63;1.83;;;;;;;;;;5073918;28;20084;-93
2023/09/25 02:56:46;;;;;;;3.83;1.48;;;;;;;;;;5073989;28;20036;-93
2023/09/25 02:59:19;;;;;;;3.47;1.50;;;;;;;;;;5073675;28;20048;-92
2023/09/25 03:01:47;;;;;;;5.50;1.30;;;;;;;;;;5060675;28;20551;-93
2023/09/25 03:04:13;;;;;;;4.50;1.20;;;;;;;;;;5073110;28;20101;-93
2023/09/25 03:06:38;;;;;;;3.13;1.23;;;;;;;;;;5075390;28;20020;-93
2023/09/25 03:09:04;;;;;;;3.28;1.50;;;;;;;;;;5074752;28;20149;-92
2023/09/25 03:11:31;;;;;;;4.22;1.52;;;;;;;;;;5064345;28;20029;-92
2023/09/25 03:13:57;;;;;;;2.92;1.50;;;;;;;;;;5071256;28;20025;-93
2023/09/25 03:16:22;;;;;;;5.78;1.60;;;;;;;;;;5064704;28;20016;-93
2023/09/25 03:18:48;;;;;;;5.68;1.40;;;;;;;;;;5074070;28;20108;-92
2023/09/25 03:21:14;;;;;;;2.28;1.30;;;;;;;;;;5066117;28;20112;-92
2023/09/25 03:23:40;;;;;;;4.30;1.50;;;;;;;;;;5068137;28;20031;-93
2023/09/25 03:26:15;;;;;;;3.70;1.50;;;;;;;;;;5059310;28;20024;-92
2023/09/25 03:28:48;;;;;;;2.80;1.27;;;;;;;;;;5063906;28;20418;-93
2023/09/25 03:31:13;;;;;;;2.20;1.20;;;;;;;;;;5074649;28;20036;-93
2023/09/25 03:33:42;;;;;;;2.88;1.58;;;;;;;;;;5060879;28;20021;-93
2023/09/25 03:36:07;;;;;;;2.83;1.23;;;;;;;;;;5057954;28;20033;-93
2023/09/25 03:38:34;;;;;;;3.05;1.48;;;;;;;;;;5063132;28;20032;-93
2023/09/25 03:40:59;;;;;;;3.65;1.35;;;;;;;;;;5070247;28;20132;-93
2023/09/25 03:43:25;;;;;;;2.10;1.23;;;;;;;;;;5074106;28;20490;-93
2023/09/25 03:45:50;;;;;;;3.42;1.40;;;;;;;;;;5072470;28;20031;-94
2023/09/25 03:48:16;;;;;;;6.15;1.52;;;;;;;;;;5052630;28;20052;-92
2023/09/25 03:50:44;;;;;;;2.80;1.45;;;;;;;;;;5064878;28;20111;-93
2023/09/25 03:53:11;;;;;;;6.85;1.50;;;;;;;;;;5072925;28;20035;-92
2023/09/25 03:55:36;;;;;;;2.17;1.15;;;;;;;;;;5072579;28;20025;-94
2023/09/25 03:58:04;;;;;;;2.65;0.98;;;;;;;;;;5072771;28;20483;-92
2023/09/25 04:00:32;;;;;;;2.58;1.23;;;;;;;;;;5072820;28;20440;-93
2023/09/25 04:02:57;;;;;;;3.17;1.42;;;;;;;;;;5056619;28;20032;-92
2023/09/25 04:05:23;;;;;;;7.00;1.73;;;;;;;;;;5052050;28;20031;-93
2023/09/25 04:07:49;;;;;;;2.53;1.30;;;;;;;;;;5064770;28;20047;-93
2023/09/25 04:10:14;;;;;;;4.28;1.30;;;;;;;;;;5068828;28;20044;-93
2023/09/25 04:12:46;;;;;;;2.42;1.30;;;;;;;;;;5060683;28;20078;-93
2023/09/25 04:15:17;;;;;;;4.97;1.40;;;;;;;;;;5073429;28;20092;-93
2023/09/25 04:17:43;;;;;;;2.70;1.40;;;;;;;;;;5075827;28;20040;-92
2023/09/25 04:20:17;;;;;;;3.63;1.42;;;;;;;;;;5076286;28;20024;-93
2023/09/25 04:22:43;;;;;;;4.80;1.40;;;;;;;;;;5070059;28;20039;-93
2023/09/25 04:25:18;;;;;;;6.32;1.40;;;;;;;;;;5070242;28;20028;-93
2023/09/25 04:27:45;;;;;;;3.25;1.50;;;;;;;;;;5079337;28;20114;-93
2023/09/25 04:30:14;;;;;;;3.88;1.58;;;;;;;;;;5077363;28;20376;-92
2023/09/25 04:32:40;;;;;;;3.63;1.23;;;;;;;;;;5074384;28;20051;-92
2023/09/25 04:35:07;;;;;;;3.00;1.48;;;;;;;;;;5063009;28;20021;-93
2023/09/25 04:37:33;;;;;;;3.95;1.52;;;;;;;;;;5057940;28;20052;-93
2023/09/25 04:40:01;;;;;;;2.63;1.30;;;;;;;;;;5069112;28;20013;-92
2023/09/25 04:42:27;;;;;;;5.78;1.50;;;;;;;;;;5064142;28;20025;-92
2023/09/25 04:44:52;;;;;;;3.85;1.52;;;;;;;;;;5069570;28;20383;-93
2023/09/25 04:47:17;;;;;;;2.13;1.05;;;;;;;;;;5070780;28;20035;-93
2023/09/25 04:49:43;;;;;;;4.85;1.55;;;;;;;;;;5079072;28;20016;-93
2023/09/25 04:52:09;;;;;;;2.95;1.33;;;;;;;;;;5079212;28;20021;-93
2023/09/25 04:54:37;;;;;;;3.40;1.55;;;;;;;;;;5070284;28;20025;-93
2023/09/25 04:57:02;;;;;;;4.30;1.52;;;;;;;;;;5069831;28;20112;-93
2023/09/25 04:59:27;;;;;;;4.40;1.50;;;;;;;;;;5073595;28;20048;-93
2023/09/25 05:01:52;;;;;;;3.92;1.48;;;;;;;;;;5078636;28;20028;-93
2023/09/25 05:04:18;;;;;;;3.33;1.40;;;;;;;;;;5071871;28;20028;-93
2023/09/25 05:06:44;;;;;;;3.35;1.60;;;;;;;;;;5074233;28;20718;-93
2023/09/25 05:09:11;;;;;;;3.53;1.42;;;;;;;;;;5069639;28;20027;-92
2023/09/25 05:11:36;;;;;;;9.40;1.60;;;;;;;;;;5075115;28;20024;-94
2023/09/25 05:14:02;;;;;;;3.83;1.77;;;;;;;;;;5078265;28;20040;-92
2023/09/25 05:16:30;;;;;;;3.15;1.30;;;;;;;;;;5081227;28;20016;-93
2023/09/25 05:18:57;;;;;;;4.82;1.75;;;;;;;;;;5066712;28;20324;-92
2023/09/25 05:21:23;;;;;;;4.18;1.50;;;;;;;;;;5070035;28;20028;-93
2023/09/25 05:23:49;;;;;;;4.65;1.95;;;;;;;;;;5075800;28;20021;-92
2023/09/25 05:26:17;;;;;;;4.13;1.55;;;;;;;;;;5075226;28;20435;-93
2023/09/25 05:28:42;;;;;;;2.58;1.40;;;;;;;;;;5060950;28;20036;-93
2023/09/25 05:31:08;;;;;;;4.28;2.20;;;;;;;;;;5083539;28;20043;-92
2023/09/25 05:33:34;;;;;;;3.67;1.73;;;;;;;;;;5086866;28;20024;-93
2023/09/25 05:36:04;;;;;;;4.40;1.65;;;;;;;;;;5084903;28;20012;-94
2023/09/25 05:38:30;;;;;;;3.92;1.50;;;;;;;;;;5076854;28;20092;-93
2023/09/25 05:40:56;;;;;;;3.05;1.55;;;;;;;;;;5075351;28;20023;-93
2023/09/25 05:43:21;;;;;;;3.90;1.50;;;;;;;;;;5075458;28;20013;-93
2023/09/25 05:45:47;;;;;;;2.40;1.30;;;;;;;;;;5075706;28;20055;-92
2023/09/25 05:48:12;;;;;;;4.43;1.73;;;;;;;;;;5064808;28;20021;-93
2023/09/25 05:50:39;;;;;;;4.50;1.52;;;;;;;;;;5078488;28;20475;-92
2023/09/25 05:53:04;;;;;;;5.75;1.60;;;;;;;;;;5063113;28;20482;-93
2023/09/25 05:55:29;;;;;;;3.75;1.45;;;;;;;;;;5069270;28;20103;-93
2023/09/25 05:57:55;;;;;;;8.68;1.42;;;;;;;;;;5061759;28;20017;-93
2023/09/25 06:00:22;;;;;;;2.60;1.30;;;;;;;;;;5074490;28;20016;-94
2023/09/25 06:02:47;;;;;;;3.35;1.45;;;;;;;;;;5065849;28;20028;-95
2023/09/25 06:05:13;;;;;;;4.47;1.50;;;;;;;;;;5072106;28;20024;-95
2023/09/25 06:07:38;;;;;;;4.32;2.08;;;;;;;;;;5072109;28;20048;-95
2023/09/25 06:10:09;;;;;;;5.03;1.10;;;;;;;;;;5071985;28;20078;-95
2023/09/25 06:12:35;;;;;;;4.75;1.52;;;;;;;;;;5070785;28;20024;-95
2023/09/25 06:15:01;;;;;;;2.75;1.25;;;;;;;;;;5075030;28;20115;-95
2023/09/25 06:17:26;;;;;;;3.83;1.40;;;;;;;;;;5060588;28;20016;-93
2023/09/25 06:19:53;;;;;;;5.45;1.40;;;;;;;;;;5073975;28;20017;-93
2023/09/25 06:22:22;;;;;;;5.15;1.83;;;;;;;;;;5072235;28;20410;-93
2023/09/25 06:24:50;;;;;;;3.47;1.08;;;;;;;;;;5074605;28;20044;-94
2023/09/25 06:27:18;;;;;;;4.00;1.73;;;;;;;;;;5074684;28;20027;-94
2023/09/25 06:29:43;;;;;;;7.40;1.40;;;;;;;;;;5073984;28;20025;-93
2023/09/25 06:32:10;;;;;;;2.63;1.27;;;;;;;;;;5060988;28;20107;-93
2023/09/25 06:34:35;;;;;;;3.47;1.50;;;;;;;;;;5060637;28;20029;-93
2023/09/25 06:37:00;;;;;;;6.32;1.52;;;;;;;;;;5068048;28;20016;-94
2023/09/25 06:39:26;;;;;;;3.05;1.40;;;;;;;;;;5074970;28;20025;-93
2023/09/25 06:41:52;;;;;;;3.42;1.10;;;;;;;;;;5076890;28;20025;-93
2023/09/25 06:44:19;;;;;;;4.55;1.15;;;;;;;;;;5069789;28;20013;-92
2023/09/25 06:46:45;;;;;;;2.33;1.17;;;;;;;;;;5071225;28;20017;-94
2023/09/25 06:49:10;;;;;;;2.35;1.38;;;;;;;;;;5057444;28;20108;-92
2023/09/25 06:51:35;;;;;;;2.92;1.30;;;;;;;;;;5062030;28;20517;-93
2023/09/25 06:54:01;;;;;;;5.35;1.30;;;;;;;;;;5062732;28;20440;-93
2023/09/25 06:56:26;;;;;;;3.85;1.23;;;;;;;;;;5059171;28;20025;-93
2023/09/25 06:58:52;;;;;;;2.80;1.35;;;;;;;;;;5064425;28;20013;-93
2023/09/25 07:01:18;;;;;;;5.63;1.00;;;;;;;;;;5068309;28;20520;-93
2023/09/25 07:03:44;;;;;;;4.03;1.45;;;;;;;;;;5061709;28;20024;-94
2023/09/25 07:06:09;;;;;;;3.92;1.30;;;;;;;;;;5074324;28;20047;-93
2023/09/25 07:08:35;;;;;;;2.10;1.20;;;;;;;;;;5074178;28;20024;-91
2023/09/25 07:11:00;;;;;;;2.60;1.00;;;;;;;;;;5075107;28;20047;-94
2023/09/25 07:13:26;;;;;;;2.88;1.10;;;;;;;;;;5059790;28;20468;-93
2023/09/25 07:15:51;;;;;;;5.47;1.20;;;;;;;;;;5073188;28;20019;-93
2023/09/25 07:18:17;;;;;;;2.70;1.13;;;;;;;;;;5073092;28;20023;-94
2023/09/25 07:20:45;;;;;;;4.57;1.45;;;;;;;;;;5073830;28;20013;-93
2023/09/25 07:23:13;;;;;;;3.67;1.20;;;;;;;;;;5067383;28;20036;-94
2023/09/25 07:25:38;;;;;;;2.50;1.23;;;;;;;;;;5067314;28;20012;-94
2023/09/25 07:28:03;;;;;;;2.92;1.25;;;;;;;;;;5066966;28;20042;-94
2023/09/25 07:30:29;;;;;;;3.47;1.30;;;;;;;;;;5063687;28;20193;-93
2023/09/25 07:32:54;;;;;;;1.55;0.93;;;;;;;;;;5060886;28;20499;-94
2023/09/25 07:35:20;;;;;;;2.33;1.08;;;;;;;;;;5071996;28;20467;-94
2023/09/25 07:37:47;;;;;;;1.90;1.00;;;;;;;;;;5074357;28;20023;-93
2023/09/25 07:40:14;;;;;;;2.72;1.02;;;;;;;;;;5074858;28;20024;-93
2023/09/25 07:42:39;;;;;;;2.83;0.90;;;;;;;;;;5075851;28;20085;-93
2023/09/25 07:45:09;;;;;;;2.55;1.20;;;;;;;;;;5076349;28;20020;-93
2023/09/25 07:47:38;;;;;;;7.10;1.50;;;;;;;;;;5073653;28;20035;-93
2023/09/25 07:50:10;;;;;;;2.13;1.00;;;;;;;;;;5065774;28;20059;-92
2023/09/25 07:52:36;;;;;;;3.63;1.10;;;;;;;;;;5072388;28;20028;-93
2023/09/25 07:55:07;;;;;;;4.18;1.10;;;;;;;;;;5068537;28;20021;-93
2023/09/25 07:57:35;;;;;;;2.28;1.05;;;;;;;;;;5064149;28;20345;-93
2023/09/25 08:00:03;;;;;;;3.00;1.08;;;;;;;;;;5076875;28;20025;-94
2023/09/25 08:02:38;;;;;;;2.83;0.90;;;;;;;;;;5068369;28;20024;-93
2023/09/25 08:05:07;;;;;;;3.15;1.23;;;;;;;;;;5067801;28;20101;-93
2023/09/25 08:07:32;;;;;;;3.50;1.02;;;;;;;;;;5063996;28;20051;-93
2023/09/25 08:09:59;;;;;;;6.70;1.27;;;;;;;;;;5072261;28;20052;-93
2023/09/25 08:12:27;;;;;;;3.65;1.15;;;;;;;;;;5072771;28;20023;-93
2023/09/25 08:14:55;;;;;;;2.53;1.02;;;;;;;;;;5073050;28;20044;-93
2023/09/25 08:17:20;;;;;;;2.28;1.10;;;;;;;;;;5057357;28;20031;-93
2023/09/25 08:19:50;;;;;;;5.35;1.35;;;;;;;;;;5072194;28;20043;-93
2023/09/25 08:22:18;;;;;;;3.22;1.08;;;;;;;;;;5070116;28;20408;-93
2023/09/25 08:24:43;;;;;;;2.10;1.00;;;;;;;;;;5061301;28;20021;-93
2023/09/25 08:27:09;;;;;;;3.00;0.98;;;;;;;;;;5072477;28;20455;-93
2023/09/25 08:29:35;;;;;;;3.03;1.30;;;;;;;;;;5066412;28;20443;-93
2023/09/25 08:32:02;;;;;;;6.90;1.25;;;;;;;;;;5068746;28;20033;-93
2023/09/25 08:34:28;;;;;;;1.85;0.90;;;;;;;;;;5071271;28;20017;-91
2023/09/25 08:36:53;;;;;;;2.30;1.00;;;;;;;;;;5061449;28;20078;-92
2023/09/25 08:39:19;;;;;;;2.15;1.15;;;;;;;;;;5062546;28;21417;-93
2023/09/25 08:41:45;;;;;;;2.15;1.00;;;;;;;;;;5057249;28;20136;-94
2023/09/25 08:44:14;;;;;;;2.88;0.90;;;;;;;;;;5060213;28;20031;-92
2023/09/25 08:46:40;;;;;;;4.15;1.15;;;;;;;;;;5057256;28;20020;-93
2023/09/25 08:49:06;;;;;;;1.80;0.82;;;;;;;;;;5071594;28;20021;-92
2023/09/25 08:51:35;;;;;;;4.00;0.90;;;;;;;;;;5073229;28;20017;-92
2023/09/25 08:54:02;;;;;;;1.80;0.85;;;;;;;;;;5069679;28;20021;-93
2023/09/25 08:56:33;;;;;;;2.55;1.35;;;;;;;;;;5080230;28;20021;-93
2023/09/25 08:59:03;;;;;;;3.83;1.30;;;;;;;;;;5078060;28;20020;-93
2023/09/25 09:01:29;;;;;;;2.40;1.15;;;;;;;;;;5076332;28;20024;-93
2023/09/25 09:03:54;;;;;;;2.42;0.95;;;;;;;;;;5070863;28;20376;-92
2023/09/25 09:06:22;;;;;;;2.95;1.23;;;;;;;;;;5071186;28;20048;-92
2023/09/25 09:08:49;;;;;;;3.38;1.38;;;;;;;;;;5063786;28;20012;-92
2023/09/25 09:11:15;;;;;;;5.82;1.17;;;;;;;;;;5062095;28;20028;-93
2023/09/25 09:13:47;;;;;;;3.60;1.10;;;;;;;;;;5063037;28;20017;-93
2023/09/25 09:16:20;;;;;;;2.22;0.88;;;;;;;;;;5072537;28;20021;-93
2023/09/25 09:22:09;;;;;;;3.08;1.02;;;;;;;;;;5073431;28;20368;-92
2023/09/25 09:24:41;;;;;;;3.05;0.90;;;;;;;;;;5072406;28;20382;-93
2023/09/25 09:27:09;;;;;;;2.17;1.25;;;;;;;;;;5070962;28;20037;-92
2023/09/25 09:29:42;;;;;;;4.38;1.35;;;;;;;;;;5075862;28;20052;-93
2023/09/25 09:32:08;;;;;;;2.40;1.00;;;;;;;;;;5062172;28;20025;-92
2023/09/25 09:34:34;;;;;;;6.10;0.80;;;;;;;;;;5075182;28;20040;-92
2023/09/25 09:37:00;;;;;;;2.55;1.25;;;;;;;;;;5063639;28;20103;-92
2023/09/25 09:39:26;;;;;;;1.55;0.95;;;;;;;;;;5107260;27;20016;-93
2023/09/25 09:41:51;;;;;;;5.47;1.02;;;;;;;;;;5075538;28;20388;-92
2023/09/25 09:44:18;;;;;;;2.85;1.05;;;;;;;;;;5072659;28;20426;-93
2023/09/25 09:46:49;;;;;;;3.97;1.20;;;;;;;;;;5075684;28;20036;-92
2023/09/25 09:49:17;;;;;;;4.00;1.03;;;;;;;;;;5076237;28;20408;-93
2023/09/25 09:51:44;;;;;;;4.13;1.10;;;;;;;;;;5057034;28;20013;-92
2023/09/25 09:54:11;;;;;;;2.50;1.00;;;;;;;;;;5068748;28;20016;-93
2023/09/25 09:56:38;;;;;;;4.93;1.27;;;;;;;;;;5069772;28;20079;-92
2023/09/25 09:59:03;;;;;;;2.72;0.80;;;;;;;;;;5056088;28;20087;-92
2023/09/25 10:01:30;;;;;;;4.07;1.30;;;;;;;;;;5060352;28;20028;-92
2023/09/25 10:04:00;;;;;;;4.97;0.90;;;;;;;;;;5077992;28;20017;-93
2023/09/25 10:06:27;;;;;;;1.80;1.00;;;;;;;;;;5066819;28;20021;-92
2023/09/25 10:09:07;;;;;;;3.30;1.60;;;;;;;;;;5080056;28;20077;-92
2023/09/25 10:11:33;;;;;;;5.25;1.65;;;;;;;;;;5104066;28;20024;-88
2023/09/25 10:14:07;;;;;;;1.67;1.00;;;;;;;;;;5074494;28;20031;-88
2023/09/25 10:16:51;;;;;;;7.75;1.30;;;;;;;;;;5066956;28;20090;-89
2023/09/25 10:19:20;;;;;;;2.97;1.30;;;;;;;;;;5061092;28;20028;-89
2023/09/25 10:22:06;;;;;;;1.55;1.00;;;;;;;;;;5063106;28;20039;-88
2023/09/25 10:24:33;;;;;;;2.10;1.05;;;;;;;;;;5064405;28;20040;-88
2023/09/25 10:26:59;;;;;;;2.50;1.23;;;;;;;;;;5054389;28;20029;-88
2023/09/25 10:29:24;;;;;;;4.68;1.23;;;;;;;;;;5073652;28;20103;-89
2023/09/25 10:31:52;;;;;;;5.00;0.85;;;;;;;;;;5073443;28;20016;-88
2023/09/25 10:34:20;;;;;;;4.90;1.08;;;;;;;;;;5060627;28;20401;-88
2023/09/25 10:36:47;;;;;;;4.25;1.05;;;;;;;;;;5060083;28;20012;-88
2023/09/25 10:39:16;;;;;;;2.83;1.00;;;;;;;;;;5068255;28;20070;-88
2023/09/25 10:41:48;;;;;;;4.78;1.08;;;;;;;;;;5073140;28;20020;-88
2023/09/25 10:44:13;;;;;;;2.38;1.00;;;;;;;;;;5068684;28;20024;-89
2023/09/25 10:46:39;;;;;;;1.40;0.90;;;;;;;;;;5074453;28;20021;-88
2023/09/25 10:49:11;;;;;;;1.70;0.90;;;;;;;;;;5075392;28;20020;-88
2023/09/25 10:51:36;;;;;;;4.53;1.20;;;;;;;;;;5060404;28;20103;-89
2023/09/25 10:54:05;;;;;;;1.23;0.70;;;;;;;;;;5073420;28;20060;-88
2023/09/25 10:56:31;;;;;;;1.63;0.93;;;;;;;;;;5073826;28;20040;-88
2023/09/25 10:58:57;;;;;;;1.83;0.80;;;;;;;;;;5074386;28;20120;-88
2023/09/25 11:01:23;;;;;;;2.80;1.10;;;;;;;;;;5073883;28;20048;-89
2023/09/25 11:03:49;;;;;;;5.10;1.23;;;;;;;;;;5065283;28;20383;-88
2023/09/25 11:06:16;;;;;;;3.22;1.20;;;;;;;;;;5069298;28;20025;-89
2023/09/25 11:08:42;;;;;;;3.60;1.40;;;;;;;;;;5070851;28;20032;-87
2023/09/25 11:11:07;;;;;;;2.35;0.88;;;;;;;;;;5074497;28;20169;-88
2023/09/25 11:13:32;;;;;;;1.90;0.68;;;;;;;;;;5073386;28;20052;-89
2023/09/25 11:16:01;;;;;;;2.50;1.17;;;;;;;;;;5076363;28;20013;-88
2023/09/25 11:18:26;;;;;;;2.75;1.30;;;;;;;;;;5076355;28;20153;-89
2023/09/25 11:20:52;;;;;;;1.73;0.93;;;;;;;;;;5071616;28;20025;-88
2023/09/25 11:23:20;;;;;;;3.33;0.95;;;;;;;;;;5072749;28;20025;-88
2023/09/25 11:25:46;;;;;;;2.08;1.00;;;;;;;;;;5073226;28;20062;-88
2023/09/25 11:28:17;;;;;;;2.25;1.02;;;;;;;;;;5073436;28;20024;-88
2023/09/25 11:30:45;;;;;;;3.42;0.90;;;;;;;;;;5068776;28;20062;-88
2023/09/25 11:33:12;;;;;;;2.60;1.00;;;;;;;;;;5068209;28;20020;-89
2023/09/25 11:35:38;;;;;;;4.47;1.27;;;;;;;;;;5067138;28;20530;-88
2023/09/25 11:38:17;;;;;;;1.95;0.98;;;;;;;;;;5059622;28;20058;-88
2023/09/25 11:40:44;;;;;;;3.42;1.15;;;;;;;;;;5065874;28;20044;-88
2023/09/25 11:43:13;;;;;;;1.88;1.20;;;;;;;;;;5069232;28;20106;-88
2023/09/25 11:45:39;;;;;;;2.92;1.20;;;;;;;;;;5071928;28;20684;-88
2023/09/25 11:48:04;;;;;;;2.92;1.20;;;;;;;;;;5070977;28;20024;-89
2023/09/25 11:50:30;;;;;;;1.75;1.13;;;;;;;;;;5072575;28;20024;-89
2023/09/25 11:52:55;;;;;;;2.08;1.08;;;;;;;;;;5072408;28;20021;-88
2023/09/25 11:55:20;;;;;;;5.07;0.90;;;;;;;;;;5072595;28;20023;-88
2023/09/25 11:57:49;;;;;;;2.78;0.95;;;;;;;;;;5071615;28;20133;-88
2023/09/25 12:00:27;;;;;;;5.60;1.02;;;;;;;;;;5063094;28;20302;-88
2023/09/25 12:02:53;;;;;;;1.80;0.88;;;;;;;;;;5063404;28;20027;-88
2023/09/25 12:05:19;;;;;;;3.10;1.20;;;;;;;;;;5060572;28;20103;-88
2023/09/25 12:07:47;;;;;;;3.47;0.98;;;;;;;;;;5072238;28;20059;-88
2023/09/25 12:10:12;;;;;;;2.55;0.90;;;;;;;;;;5072077;28;20372;-88
2023/09/25 12:12:39;;;;;;;3.95;1.00;;;;;;;;;;5061260;28;20035;-88
2023/09/25 12:15:05;;;;;;;2.83;1.00;;;;;;;;;;5067567;28;20013;-87
2023/09/25 12:17:33;;;;;;;3.78;1.10;;;;;;;;;;5058281;28;20372;-88
2023/09/25 12:20:12;;;;;;;3.92;0.80;;;;;;;;;;5073801;28;20017;-88
2023/09/25 12:22:40;;;;;;;3.00;1.20;;;;;;;;;;5074189;28;20119;-87
2023/09/25 12:25:09;;;;;;;2.38;0.90;;;;;;;;;;5074576;28;20108;-88
2023/09/25 12:27:35;;;;;;;2.50;0.95;;;;;;;;;;5080332;28;20024;-90
2023/09/25 12:30:01;;;;;;;4.70;1.02;;;;;;;;;;5067690;28;20460;-90
2023/09/25 12:32:27;;;;;;;3.90;1.00;;;;;;;;;;5058740;28;20029;-90
2023/09/25 12:34:53;;;;;;;3.38;0.90;;;;;;;;;;5064423;28;20527;-91
2023/09/25 12:37:18;;;;;;;1.92;0.65;;;;;;;;;;5067714;28;20013;-90
2023/09/25 12:39:44;;;;;;;1.30;0.70;;;;;;;;;;5066621;28;20115;-91
2023/09/25 12:42:09;;;;;;;3.80;1.20;;;;;;;;;;5072590;28;20016;-91
2023/09/25 12:44:34;;;;;;;4.38;1.23;;;;;;;;;;5058663;28;20017;-91
2023/09/25 12:47:00;;;;;;;2.08;0.70;;;;;;;;;;5072830;28;20023;-91
2023/09/25 12:49:25;;;;;;;2.22;1.02;;;;;;;;;;5071762;28;20036;-91
2023/09/25 12:51:54;;;;;;;3.78;1.08;;;;;;;;;;5064335;28;20029;-91
2023/09/25 12:54:21;;;;;;;2.17;0.95;;;;;;;;;;5066963;28;20069;-91
2023/09/25 12:56:47;;;;;;;2.60;1.20;;;;;;;;;;5072726;28;20017;-91
2023/09/25 12:59:15;;;;;;;4.07;1.33;;;;;;;;;;5072182;28;20085;-91
2023/09/25 13:01:40;;;;;;;3.05;1.08;;;;;;;;;;5072587;28;20028;-92
2023/09/25 13:04:06;;;;;;;2.25;1.00;;;;;;;;;;5076479;28;20332;-91
2023/09/25 13:06:35;;;;;;;3.50;1.40;;;;;;;;;;5063455;28;20029;-91
2023/09/25 13:09:01;;;;;;;1.55;0.80;;;;;;;;;;5069355;28;20383;-91
2023/09/25 13:11:28;;;;;;;7.63;1.30;;;;;;;;;;5076567;28;20096;-91
2023/09/25 13:13:54;;;;;;;1.58;1.08;;;;;;;;;;5076451;28;20028;-92
2023/09/25 13:16:19;;;;;;;5.97;1.10;;;;;;;;;;5077520;28;20016;-92
2023/09/25 13:18:45;;;;;;;3.22;1.08;;;;;;;;;;5074337;28;20104;-92
2023/09/25 13:21:10;;;;;;;1.83;0.90;;;;;;;;;;5075868;28;20487;-91
2023/09/25 13:23:38;;;;;;;1.30;0.80;;;;;;;;;;5062556;28;20151;-91
2023/09/25 13:26:04;;;;;;;4.93;1.15;;;;;;;;;;5062430;28;20017;-91
2023/09/25 13:28:30;;;;;;;3.35;1.15;;;;;;;;;;5076643;28;20092;-91
2023/09/25 13:30:55;;;;;;;3.42;0.88;;;;;;;;;;5073166;28;20017;-92
2023/09/25 13:33:20;;;;;;;4.28;1.00;;;;;;;;;;5066125;28;20028;-91
2023/09/25 13:35:46;;;;;;;4.55;0.90;;;;;;;;;;5074957;28;20039;-91
2023/09/25 13:38:11;;;;;;;6.35;1.35;;;;;;;;;;5063812;28;20028;-92
2023/09/25 13:40:37;;;;;;;2.08;1.10;;;;;;;;;;5061941;28;20025;-91
2023/09/25 13:43:04;;;;;;;2.83;1.08;;;;;;;;;;5059705;28;20032;-92
2023/09/25 13:45:30;;;;;;;2.90;1.20;;;;;;;;;;5057548;28;20028;-92
2023/09/25 13:47:56;;;;;;;3.22;1.10;;;;;;;;;;5071318;28;20024;-91
2023/09/25 13:50:21;;;;;;;3.10;1.00;;;;;;;;;;5068077;28;20440;-91
2023/09/25 13:52:46;;;;;;;4.53;1.25;;;;;;;;;;5076518;28;20480;-92
2023/09/25 13:55:15;;;;;;;2.97;1.42;;;;;;;;;;5067610;28;20528;-92
2023/09/25 13:57:40;;;;;;;3.20;1.10;;;;;;;;;;5069871;28;20024;-92
2023/09/25 14:00:11;;;;;;;1.90;1.10;;;;;;;;;;5065977;28;20028;-91
2023/09/25 14:02:37;;;;;;;2.85;1.27;;;;;;;;;;5075957;28;20105;-91
2023/09/25 14:05:02;;;;;;;1.77;1.00;;;;;;;;;;5075883;28;20103;-92
2023/09/25 14:07:27;;;;;;;3.75;1.10;;;;;;;;;;5074932;28;20020;-92
2023/09/25 14:09:53;;;;;;;3.30;1.50;;;;;;;;;;5071235;28;20017;-93
2023/09/25 14:12:19;;;;;;;2.88;1.40;;;;;;;;;;5074084;28;20464;-92
2023/09/25 14:14:54;;;;;;;2.15;1.10;;;;;;;;;;5074085;28;20017;-91
2023/09/25 14:17:21;;;;;;;1.83;0.90;;;;;;;;;;5071590;28;20029;-92
2023/09/25 14:19:46;;;;;;;7.45;1.20;;;;;;;;;;5055296;28;20029;-92
2023/09/25 14:22:12;;;;;;;6.32;1.20;;;;;;;;;;5057241;28;20060;-92
2023/09/25 14:24:40;;;;;;;3.28;1.05;;;;;;;;;;5066742;28;20024;-92
2023/09/25 14:27:08;;;;;;;3.25;1.17;;;;;;;;;;5055157;28;20028;-91
2023/09/25 14:29:34;;;;;;;5.93;1.10;;;;;;;;;;5074661;28;20021;-91
2023/09/25 14:32:00;;;;;;;2.28;1.02;;;;;;;;;;5074311;28;20025;-92
2023/09/25 14:34:26;;;;;;;2.90;1.40;;;;;;;;;;5070367;28;20102;-91
2023/09/25 14:36:52;;;;;;;3.90;1.20;;;;;;;;;;5074604;28;20025;-91
2023/09/25 14:39:17;;;;;;;3.75;1.25;;;;;;;;;;5074632;28;20021;-91
2023/09/25 14:41:44;;;;;;;4.15;1.58;;;;;;;;;;5074757;28;20025;-92
2023/09/25 14:44:09;;;;;;;3.15;1.13;;;;;;;;;;5071589;28;20124;-92